createdAt,value
2022-11-20T14:49:39.340Z,3.47
2022-11-20T14:52:21.659Z,2.47
2022-11-20T14:55:02.194Z,1.80
2022-11-20T14:57:31.154Z,2.00
2022-11-20T15:00:16.600Z,1.75
2022-11-20T15:02:46.096Z,2.30
2022-11-20T15:05:16.732Z,4.65
2022-11-20T15:07:49.863Z,3.28
2022-11-20T15:10:24.777Z,2.30
2022-11-20T15:12:58.719Z,2.88
2022-11-20T15:15:33.650Z,3.28
2022-11-20T15:18:01.403Z,2.15
2022-11-20T15:20:33.630Z,2.17
2022-11-20T15:23:01.642Z,2.03
2022-11-20T15:25:29.329Z,2.00
2022-11-20T15:27:58.186Z,1.92
2022-11-20T15:30:25.780Z,2.03
2022-11-20T15:32:53.322Z,4.28
2022-11-20T15:35:21.297Z,3.72
2022-11-20T15:37:48.670Z,2.40
2022-11-20T15:40:16.289Z,2.38
2022-11-20T15:43:05.867Z,2.00
2022-11-20T15:45:48.181Z,1.60
2022-11-20T15:48:20.038Z,1.40
2022-11-20T15:51:11.946Z,1.58
2022-11-20T15:53:41.406Z,2.03
2022-11-20T15:56:15.724Z,1.88
2022-11-20T15:58:43.613Z,1.98
2022-11-20T16:01:13.150Z,2.42
2022-11-20T16:03:40.912Z,1.25
2022-11-20T16:06:08.170Z,1.60
2022-11-20T16:08:35.877Z,1.95
2022-11-20T16:11:03.382Z,2.30
2022-11-20T16:13:51.539Z,2.03
2022-11-20T16:16:40.251Z,3.50
2022-11-20T16:19:07.658Z,2.80
2022-11-20T16:21:35.890Z,2.88
2022-11-20T16:28:23.380Z,3.47
2022-11-20T16:30:50.990Z,4.43
2022-11-20T16:33:18.701Z,4.05
2022-11-20T16:35:45.912Z,4.38
2022-11-20T16:38:13.158Z,4.30
2022-11-20T16:40:40.478Z,4.45
2022-11-20T16:43:14.926Z,6.18
2022-11-20T16:45:44.145Z,4.43
2022-11-20T16:48:16.894Z,3.92
2022-11-20T16:50:49.727Z,4.20
2022-11-20T16:53:19.000Z,4.00
2022-11-20T16:55:46.833Z,4.45
2022-11-20T16:58:15.241Z,5.30
2022-11-20T17:00:48.358Z,4.68
2022-11-20T17:03:18.450Z,4.90
2022-11-20T17:05:48.538Z,3.72
2022-11-20T17:08:15.871Z,3.17
2022-11-20T17:10:43.163Z,4.78
2022-11-20T17:13:11.401Z,3.30
2022-11-20T17:15:38.853Z,2.97
2022-11-20T17:18:06.538Z,4.22
2022-11-20T17:20:33.782Z,4.93
2022-11-20T17:23:01.320Z,4.07
2022-11-20T17:25:28.698Z,6.85
2022-11-20T17:27:55.992Z,6.43
2022-11-20T17:30:23.733Z,5.60
2022-11-20T17:32:51.196Z,7.50
2022-11-20T17:35:18.436Z,5.45
2022-11-20T17:37:45.902Z,6.97
2022-11-20T17:40:13.681Z,6.50
2022-11-20T17:42:40.929Z,6.15
2022-11-20T17:45:08.358Z,5.57
2022-11-20T17:47:37.310Z,7.63
2022-11-20T17:50:05.396Z,9.65
2022-11-20T17:52:32.586Z,7.95
2022-11-20T17:54:59.820Z,8.45
2022-11-20T17:57:46.627Z,8.65
2022-11-20T18:00:16.921Z,5.38
2022-11-20T18:02:44.262Z,6.88
2022-11-20T18:05:11.681Z,6.70
2022-11-20T18:07:41.840Z,8.75
2022-11-20T18:10:09.770Z,9.95
2022-11-20T18:12:37.187Z,7.70
2022-11-20T18:15:04.700Z,6.93
2022-11-20T18:17:31.834Z,5.00
2022-11-20T18:20:28.698Z,4.95
2022-11-20T18:22:47.521Z,5.25
2022-11-20T18:25:14.997Z,5.70
2022-11-20T18:27:42.338Z,3.97
2022-11-20T18:30:10.314Z,4.20
2022-11-20T18:32:38.426Z,4.65
2022-11-20T18:35:06.372Z,4.00
2022-11-20T18:37:33.736Z,3.25
2022-11-20T18:40:00.982Z,2.83
2022-11-20T18:42:47.183Z,2.90
2022-11-20T18:45:41.874Z,3.58
2022-11-20T18:48:09.392Z,2.70
2022-11-20T18:50:36.665Z,1.90
2022-11-20T18:53:04.044Z,2.05
2022-11-20T18:55:31.578Z,2.65
2022-11-20T18:58:24.599Z,1.73
2022-11-20T19:00:51.962Z,2.25
2022-11-20T19:03:19.387Z,2.22
2022-11-20T19:05:46.569Z,1.67
2022-11-20T19:08:14.417Z,3.05
2022-11-20T19:10:41.937Z,5.75
2022-11-20T19:13:09.402Z,3.92
2022-11-20T19:15:37.863Z,3.70
2022-11-20T19:18:05.157Z,2.55
2022-11-20T19:20:32.653Z,2.92
2022-11-20T19:23:13.699Z,2.65
2022-11-20T19:25:41.649Z,2.13
2022-11-20T19:28:09.068Z,1.95
2022-11-20T19:30:41.703Z,2.10
2022-11-20T19:33:09.411Z,2.90
2022-11-20T19:35:36.873Z,2.60
2022-11-20T19:38:07.249Z,2.63
2022-11-20T19:40:34.751Z,3.50
2022-11-20T19:43:10.618Z,3.70
2022-11-20T19:45:37.920Z,4.32
2022-11-20T19:48:08.043Z,6.00
2022-11-20T19:50:39.150Z,6.90
2022-11-20T19:53:10.510Z,7.88
2022-11-20T19:55:43.302Z,4.95
2022-11-20T19:58:10.887Z,4.95
2022-11-20T20:00:38.311Z,4.35
2022-11-20T20:03:06.333Z,4.25
2022-11-20T20:05:34.641Z,4.72
2022-11-20T20:08:02.248Z,5.63
2022-11-20T20:10:29.444Z,8.70
2022-11-20T20:12:57.425Z,7.90
2022-11-20T20:15:24.917Z,8.60
2022-11-20T20:17:53.339Z,6.28
2022-11-20T20:20:21.250Z,10.27
2022-11-20T20:22:49.087Z,9.38
2022-11-20T20:25:16.504Z,8.10
2022-11-20T20:27:43.837Z,11.55
2022-11-20T20:30:12.242Z,9.65
2022-11-20T20:32:39.669Z,14.52
2022-11-20T20:35:07.391Z,12.68
2022-11-20T20:37:34.663Z,13.02
2022-11-20T20:40:01.873Z,11.30
2022-11-20T20:42:32.269Z,8.90
2022-11-20T20:45:08.341Z,6.47
2022-11-20T20:47:38.348Z,14.65
2022-11-20T20:50:08.538Z,13.02
2022-11-20T20:52:36.689Z,13.38
2022-11-20T20:55:04.679Z,14.23
2022-11-20T20:57:32.034Z,12.90
2022-11-20T20:59:59.260Z,8.30
2022-11-20T21:02:26.785Z,5.77
2022-11-20T21:04:54.941Z,4.30
2022-11-20T21:07:26.207Z,2.60
2022-11-20T21:09:53.815Z,2.08
2022-11-20T21:12:21.075Z,1.87
2022-11-20T21:14:48.753Z,1.70
2022-11-20T21:17:16.744Z,3.20
2022-11-20T21:19:47.687Z,5.97
2022-11-20T21:22:18.432Z,7.67
2022-11-20T21:24:48.090Z,8.97
2022-11-20T21:27:15.617Z,8.37
2022-11-20T21:29:43.070Z,6.60
2022-11-20T21:32:10.205Z,8.80
2022-11-20T21:34:37.402Z,8.00
2022-11-20T21:37:06.218Z,8.00
2022-11-20T21:39:34.035Z,10.00
2022-11-20T21:42:01.130Z,8.80
2022-11-20T21:44:32.089Z,8.27
2022-11-20T21:46:59.535Z,9.70
2022-11-20T21:49:26.886Z,7.30
2022-11-20T21:51:54.534Z,5.53
2022-11-20T21:54:21.940Z,9.70
2022-11-20T21:56:49.381Z,7.20
2022-11-20T21:59:17.036Z,6.17
2022-11-20T22:01:44.618Z,7.13
2022-11-20T22:04:18.718Z,9.90
2022-11-20T22:06:46.163Z,9.73
2022-11-20T22:09:14.013Z,11.27
2022-11-20T22:11:41.444Z,10.30
2022-11-20T22:14:23.998Z,8.00
2022-11-20T22:16:53.719Z,12.13
2022-11-20T22:19:22.541Z,11.63
2022-11-20T22:21:53.430Z,14.43
2022-11-20T22:24:23.308Z,14.93
2022-11-20T22:26:51.777Z,10.57
2022-11-20T22:29:21.466Z,6.50
2022-11-20T22:31:51.556Z,5.47
2022-11-20T22:34:19.302Z,3.73
2022-11-20T22:36:46.681Z,3.80
2022-11-20T22:39:13.939Z,3.70
2022-11-20T22:41:41.303Z,3.37
2022-11-20T22:44:09.056Z,3.23
2022-11-20T22:46:37.502Z,2.83
2022-11-20T22:49:08.776Z,2.50
2022-11-20T22:51:39.431Z,2.20
2022-11-20T22:54:07.143Z,3.30
2022-11-20T22:56:35.286Z,5.50
2022-11-20T22:59:03.029Z,3.43
2022-11-20T23:01:32.481Z,2.60
2022-11-20T23:04:04.287Z,3.20
2022-11-20T23:06:35.429Z,2.40
2022-11-20T23:09:04.533Z,2.00
2022-11-20T23:11:33.480Z,1.60
2022-11-20T23:14:03.986Z,1.27
2022-11-20T23:16:33.172Z,1.07
2022-11-20T23:19:03.962Z,1.67
2022-11-20T23:21:32.010Z,3.13
2022-11-20T23:24:00.276Z,3.27
2022-11-20T23:26:30.733Z,3.60
2022-11-20T23:28:59.428Z,2.23
2022-11-20T23:31:29.065Z,2.10
2022-11-20T23:33:56.592Z,2.83
2022-11-20T23:36:24.044Z,4.63
2022-11-20T23:38:51.516Z,5.50
2022-11-20T23:41:19.180Z,3.13
2022-11-20T23:43:46.441Z,2.43
2022-11-20T23:46:16.828Z,2.83
2022-11-20T23:48:45.672Z,3.60
2022-11-20T23:51:13.518Z,3.13
2022-11-20T23:53:40.862Z,4.40
2022-11-20T23:56:08.253Z,4.30
2022-11-20T23:58:37.702Z,3.50
